sensor_id;sensor_type;location;lat;lon;timestamp;P1;durP1;ratioP1;P2;durP2;ratioP2
56752;SDS011;42627;42.646;23.642;2023-08-20T00:01:01;7.63;;;4.28;;
56752;SDS011;42627;42.646;23.642;2023-08-20T00:03:07;8.90;;;4.47;;
56752;SDS011;42627;42.646;23.642;2023-08-20T00:05:11;6.00;;;4.25;;
56752;SDS011;42627;42.646;23.642;2023-08-20T00:07:12;8.13;;;4.45;;
56752;SDS011;42627;42.646;23.642;2023-08-20T00:09:16;8.40;;;4.38;;
56752;SDS011;42627;42.646;23.642;2023-08-20T00:11:17;8.35;;;4.25;;
56752;SDS011;42627;42.646;23.642;2023-08-20T00:13:18;8.43;;;4.47;;
56752;SDS011;42627;42.646;23.642;2023-08-20T00:15:19;8.80;;;4.85;;
56752;SDS011;42627;42.646;23.642;2023-08-20T00:17:22;9.90;;;4.38;;
56752;SDS011;42627;42.646;23.642;2023-08-20T00:19:27;6.13;;;4.07;;
56752;SDS011;42627;42.646;23.642;2023-08-20T00:21:31;8.70;;;4.13;;
56752;SDS011;42627;42.646;23.642;2023-08-20T00:23:32;7.22;;;4.40;;
56752;SDS011;42627;42.646;23.642;2023-08-20T00:32:53;7.18;;;4.25;;
56752;SDS011;42627;42.646;23.642;2023-08-20T00:34:54;10.88;;;4.25;;
56752;SDS011;42627;42.646;23.642;2023-08-20T00:36:55;8.52;;;4.57;;
56752;SDS011;42627;42.646;23.642;2023-08-20T00:38:56;9.77;;;4.13;;
56752;SDS011;42627;42.646;23.642;2023-08-20T00:40:57;8.65;;;4.60;;
56752;SDS011;42627;42.646;23.642;2023-08-20T00:42:59;9.27;;;4.70;;
56752;SDS011;42627;42.646;23.642;2023-08-20T00:47:36;9.00;;;4.90;;
56752;SDS011;42627;42.646;23.642;2023-08-20T00:49:38;8.95;;;4.50;;
56752;SDS011;42627;42.646;23.642;2023-08-20T00:51:40;6.72;;;4.55;;
56752;SDS011;42627;42.646;23.642;2023-08-20T00:53:41;11.20;;;6.15;;
56752;SDS011;42627;42.646;23.642;2023-08-20T01:03:12;10.10;;;5.40;;
56752;SDS011;42627;42.646;23.642;2023-08-20T01:05:13;11.40;;;7.18;;
56752;SDS011;42627;42.646;23.642;2023-08-20T01:07:23;10.15;;;6.88;;
56752;SDS011;42627;42.646;23.642;2023-08-20T01:12:00;9.93;;;5.75;;
56752;SDS011;42627;42.646;23.642;2023-08-20T01:14:13;11.65;;;6.22;;
56752;SDS011;42627;42.646;23.642;2023-08-20T01:16:24;11.35;;;6.07;;
56752;SDS011;42627;42.646;23.642;2023-08-20T01:18:28;9.55;;;6.38;;
56752;SDS011;42627;42.646;23.642;2023-08-20T01:20:30;13.63;;;7.40;;
56752;SDS011;42627;42.646;23.642;2023-08-20T01:30:01;8.07;;;5.10;;
56752;SDS011;42627;42.646;23.642;2023-08-20T01:32:03;9.57;;;4.70;;
56752;SDS011;42627;42.646;23.642;2023-08-20T01:34:04;7.57;;;4.78;;
56752;SDS011;42627;42.646;23.642;2023-08-20T01:36:07;8.35;;;4.53;;
56752;SDS011;42627;42.646;23.642;2023-08-20T01:38:09;7.80;;;4.47;;
56752;SDS011;42627;42.646;23.642;2023-08-20T01:40:10;9.77;;;4.60;;
56752;SDS011;42627;42.646;23.642;2023-08-20T01:42:12;8.60;;;5.22;;
56752;SDS011;42627;42.646;23.642;2023-08-20T01:44:13;11.00;;;5.45;;
56752;SDS011;42627;42.646;23.642;2023-08-20T01:46:14;7.13;;;4.60;;
56752;SDS011;42627;42.646;23.642;2023-08-20T01:48:15;8.80;;;5.50;;
56752;SDS011;42627;42.646;23.642;2023-08-20T01:50:16;11.75;;;5.88;;
56752;SDS011;42627;42.646;23.642;2023-08-20T01:52:17;9.80;;;5.25;;
56752;SDS011;42627;42.646;23.642;2023-08-20T01:54:18;8.10;;;4.57;;
56752;SDS011;42627;42.646;23.642;2023-08-20T01:56:19;8.80;;;5.80;;
56752;SDS011;42627;42.646;23.642;2023-08-20T01:58:20;10.70;;;5.53;;
56752;SDS011;42627;42.646;23.642;2023-08-20T02:00:21;10.30;;;5.47;;
56752;SDS011;42627;42.646;23.642;2023-08-20T02:02:22;12.07;;;5.50;;
56752;SDS011;42627;42.646;23.642;2023-08-20T02:04:23;12.90;;;6.00;;
56752;SDS011;42627;42.646;23.642;2023-08-20T02:06:24;14.88;;;7.00;;
56752;SDS011;42627;42.646;23.642;2023-08-20T02:08:25;14.32;;;6.90;;
56752;SDS011;42627;42.646;23.642;2023-08-20T02:10:26;13.02;;;6.97;;
56752;SDS011;42627;42.646;23.642;2023-08-20T02:12:27;12.93;;;6.35;;
56752;SDS011;42627;42.646;23.642;2023-08-20T02:16:47;9.95;;;6.13;;
56752;SDS011;42627;42.646;23.642;2023-08-20T02:18:48;10.68;;;5.97;;
56752;SDS011;42627;42.646;23.642;2023-08-20T02:20:51;13.35;;;6.10;;
56752;SDS011;42627;42.646;23.642;2023-08-20T02:22:52;10.52;;;6.22;;
56752;SDS011;42627;42.646;23.642;2023-08-20T02:29:53;10.93;;;5.50;;
56752;SDS011;42627;42.646;23.642;2023-08-20T02:31:54;10.85;;;5.53;;
56752;SDS011;42627;42.646;23.642;2023-08-20T02:33:55;10.70;;;6.15;;
56752;SDS011;42627;42.646;23.642;2023-08-20T02:36:00;16.35;;;6.88;;
56752;SDS011;42627;42.646;23.642;2023-08-20T02:38:02;11.52;;;5.93;;
56752;SDS011;42627;42.646;23.642;2023-08-20T02:40:03;12.40;;;6.60;;
56752;SDS011;42627;42.646;23.642;2023-08-20T02:42:04;11.55;;;6.00;;
56752;SDS011;42627;42.646;23.642;2023-08-20T02:46:16;11.55;;;6.22;;
56752;SDS011;42627;42.646;23.642;2023-08-20T02:48:17;12.70;;;6.32;;
56752;SDS011;42627;42.646;23.642;2023-08-20T02:50:19;9.13;;;5.90;;
56752;SDS011;42627;42.646;23.642;2023-08-20T02:52:20;9.18;;;5.68;;
56752;SDS011;42627;42.646;23.642;2023-08-20T02:54:21;12.70;;;6.00;;
56752;SDS011;42627;42.646;23.642;2023-08-20T02:56:22;11.90;;;6.20;;
56752;SDS011;42627;42.646;23.642;2023-08-20T02:58:22;13.00;;;5.88;;
56752;SDS011;42627;42.646;23.642;2023-08-20T03:05:43;11.05;;;5.82;;
56752;SDS011;42627;42.646;23.642;2023-08-20T03:07:44;10.65;;;6.88;;
56752;SDS011;42627;42.646;23.642;2023-08-20T03:09:45;13.30;;;5.78;;
56752;SDS011;42627;42.646;23.642;2023-08-20T03:11:46;11.38;;;5.72;;
56752;SDS011;42627;42.646;23.642;2023-08-20T03:16:07;11.45;;;6.65;;
56752;SDS011;42627;42.646;23.642;2023-08-20T03:18:13;13.27;;;6.97;;
56752;SDS011;42627;42.646;23.642;2023-08-20T03:22:35;11.02;;;5.82;;
56752;SDS011;42627;42.646;23.642;2023-08-20T03:24:36;10.68;;;6.32;;
56752;SDS011;42627;42.646;23.642;2023-08-20T03:26:37;9.20;;;6.13;;
56752;SDS011;42627;42.646;23.642;2023-08-20T03:28:38;10.98;;;5.85;;
56752;SDS011;42627;42.646;23.642;2023-08-20T03:35:41;13.50;;;6.10;;
56752;SDS011;42627;42.646;23.642;2023-08-20T03:37:42;12.43;;;6.45;;
56752;SDS011;42627;42.646;23.642;2023-08-20T03:39:44;12.25;;;7.30;;
56752;SDS011;42627;42.646;23.642;2023-08-20T03:41:45;10.95;;;6.25;;
56752;SDS011;42627;42.646;23.642;2023-08-20T03:43:46;11.88;;;7.18;;
56752;SDS011;42627;42.646;23.642;2023-08-20T03:45:51;11.02;;;6.10;;
56752;SDS011;42627;42.646;23.642;2023-08-20T03:47:52;12.32;;;7.07;;
56752;SDS011;42627;42.646;23.642;2023-08-20T03:52:03;10.07;;;6.35;;
56752;SDS011;42627;42.646;23.642;2023-08-20T03:54:09;11.15;;;6.97;;
56752;SDS011;42627;42.646;23.642;2023-08-20T03:56:16;11.57;;;6.80;;
56752;SDS011;42627;42.646;23.642;2023-08-20T03:58:17;11.18;;;6.57;;
56752;SDS011;42627;42.646;23.642;2023-08-20T04:00:29;14.00;;;7.40;;
56752;SDS011;42627;42.646;23.642;2023-08-20T04:02:39;13.77;;;7.25;;
56752;SDS011;42627;42.646;23.642;2023-08-20T04:12:03;14.02;;;6.90;;
56752;SDS011;42627;42.646;23.642;2023-08-20T04:14:04;10.88;;;6.93;;
56752;SDS011;42627;42.646;23.642;2023-08-20T04:16:13;13.45;;;7.07;;
56752;SDS011;42627;42.646;23.642;2023-08-20T04:18:14;11.55;;;7.10;;
56752;SDS011;42627;42.646;23.642;2023-08-20T04:22:35;13.75;;;7.38;;
56752;SDS011;42627;42.646;23.642;2023-08-20T04:24:37;12.75;;;6.57;;
56752;SDS011;42627;42.646;23.642;2023-08-20T04:26:38;10.07;;;6.70;;
56752;SDS011;42627;42.646;23.642;2023-08-20T04:28:39;13.50;;;7.03;;
56752;SDS011;42627;42.646;23.642;2023-08-20T04:30:40;11.23;;;7.07;;
56752;SDS011;42627;42.646;23.642;2023-08-20T04:32:41;11.40;;;6.32;;
56752;SDS011;42627;42.646;23.642;2023-08-20T04:37:04;13.60;;;7.25;;
56752;SDS011;42627;42.646;23.642;2023-08-20T04:39:09;14.63;;;7.05;;
56752;SDS011;42627;42.646;23.642;2023-08-20T04:41:10;14.77;;;6.80;;
56752;SDS011;42627;42.646;23.642;2023-08-20T04:43:11;12.70;;;7.28;;
56752;SDS011;42627;42.646;23.642;2023-08-20T04:45:12;10.68;;;6.80;;
56752;SDS011;42627;42.646;23.642;2023-08-20T04:47:13;9.45;;;5.53;;
56752;SDS011;42627;42.646;23.642;2023-08-20T04:49:23;11.35;;;6.05;;
56752;SDS011;42627;42.646;23.642;2023-08-20T04:51:46;9.95;;;6.15;;
56752;SDS011;42627;42.646;23.642;2023-08-20T04:56:06;10.45;;;6.63;;
56752;SDS011;42627;42.646;23.642;2023-08-20T04:58:07;11.57;;;6.78;;
56752;SDS011;42627;42.646;23.642;2023-08-20T05:00:09;8.95;;;6.13;;
56752;SDS011;42627;42.646;23.642;2023-08-20T05:02:13;13.52;;;6.13;;
56752;SDS011;42627;42.646;23.642;2023-08-20T05:06:25;11.00;;;6.80;;
56752;SDS011;42627;42.646;23.642;2023-08-20T05:08:26;11.38;;;6.60;;
56752;SDS011;42627;42.646;23.642;2023-08-20T05:10:27;10.23;;;6.30;;
56752;SDS011;42627;42.646;23.642;2023-08-20T05:12:28;10.25;;;5.57;;
56752;SDS011;42627;42.646;23.642;2023-08-20T05:14:29;10.73;;;5.82;;
56752;SDS011;42627;42.646;23.642;2023-08-20T05:16:31;10.10;;;5.88;;
56752;SDS011;42627;42.646;23.642;2023-08-20T05:18:32;9.40;;;5.68;;
56752;SDS011;42627;42.646;23.642;2023-08-20T05:20:55;9.90;;;5.80;;
56752;SDS011;42627;42.646;23.642;2023-08-20T05:22:56;11.07;;;6.25;;
56752;SDS011;42627;42.646;23.642;2023-08-20T05:24:57;9.38;;;5.78;;
56752;SDS011;42627;42.646;23.642;2023-08-20T05:27:15;9.88;;;5.80;;
56752;SDS011;42627;42.646;23.642;2023-08-20T05:29:18;9.52;;;6.00;;
56752;SDS011;42627;42.646;23.642;2023-08-20T05:31:19;10.20;;;5.60;;
56752;SDS011;42627;42.646;23.642;2023-08-20T05:33:20;8.93;;;5.78;;
56752;SDS011;42627;42.646;23.642;2023-08-20T05:40:37;9.48;;;5.75;;
56752;SDS011;42627;42.646;23.642;2023-08-20T05:42:38;10.02;;;5.82;;
56752;SDS011;42627;42.646;23.642;2023-08-20T05:44:39;10.63;;;6.03;;
56752;SDS011;42627;42.646;23.642;2023-08-20T05:46:40;10.23;;;5.80;;
56752;SDS011;42627;42.646;23.642;2023-08-20T05:48:41;9.60;;;5.82;;
56752;SDS011;42627;42.646;23.642;2023-08-20T05:50:42;9.73;;;5.50;;
56752;SDS011;42627;42.646;23.642;2023-08-20T05:52:43;17.75;;;8.90;;
56752;SDS011;42627;42.646;23.642;2023-08-20T05:54:44;16.80;;;7.45;;
56752;SDS011;42627;42.646;23.642;2023-08-20T05:56:45;11.55;;;5.93;;
56752;SDS011;42627;42.646;23.642;2023-08-20T05:58:46;12.57;;;6.43;;
56752;SDS011;42627;42.646;23.642;2023-08-20T06:00:47;9.02;;;5.63;;
56752;SDS011;42627;42.646;23.642;2023-08-20T06:02:48;10.02;;;5.78;;
56752;SDS011;42627;42.646;23.642;2023-08-20T06:04:49;10.18;;;5.50;;
56752;SDS011;42627;42.646;23.642;2023-08-20T06:06:51;9.95;;;5.28;;
56752;SDS011;42627;42.646;23.642;2023-08-20T06:11:02;9.07;;;5.57;;
56752;SDS011;42627;42.646;23.642;2023-08-20T06:13:03;14.05;;;8.25;;
56752;SDS011;42627;42.646;23.642;2023-08-20T06:15:05;22.08;;;9.43;;
56752;SDS011;42627;42.646;23.642;2023-08-20T06:17:06;23.63;;;11.68;;
56752;SDS011;42627;42.646;23.642;2023-08-20T06:19:07;12.82;;;7.53;;
56752;SDS011;42627;42.646;23.642;2023-08-20T06:21:08;18.90;;;9.52;;
56752;SDS011;42627;42.646;23.642;2023-08-20T06:23:09;17.77;;;9.38;;
56752;SDS011;42627;42.646;23.642;2023-08-20T06:33:53;35.42;;;16.23;;
56752;SDS011;42627;42.646;23.642;2023-08-20T06:35:54;31.60;;;14.48;;
56752;SDS011;42627;42.646;23.642;2023-08-20T06:37:58;37.42;;;15.18;;
56752;SDS011;42627;42.646;23.642;2023-08-20T06:42:12;28.90;;;13.77;;
56752;SDS011;42627;42.646;23.642;2023-08-20T06:48:42;21.95;;;10.00;;
56752;SDS011;42627;42.646;23.642;2023-08-20T06:50:43;47.90;;;22.48;;
56752;SDS011;42627;42.646;23.642;2023-08-20T06:52:44;34.30;;;16.70;;
56752;SDS011;42627;42.646;23.642;2023-08-20T06:59:52;16.25;;;8.07;;
56752;SDS011;42627;42.646;23.642;2023-08-20T07:01:56;16.30;;;9.05;;
56752;SDS011;42627;42.646;23.642;2023-08-20T07:03:59;19.17;;;9.18;;
56752;SDS011;42627;42.646;23.642;2023-08-20T07:06:02;21.42;;;10.57;;
56752;SDS011;42627;42.646;23.642;2023-08-20T07:08:06;17.95;;;8.75;;
56752;SDS011;42627;42.646;23.642;2023-08-20T07:10:07;18.25;;;9.02;;
56752;SDS011;42627;42.646;23.642;2023-08-20T07:12:08;20.50;;;8.63;;
56752;SDS011;42627;42.646;23.642;2023-08-20T07:14:18;19.38;;;8.30;;
56752;SDS011;42627;42.646;23.642;2023-08-20T07:16:19;15.40;;;7.10;;
56752;SDS011;42627;42.646;23.642;2023-08-20T07:18:22;11.30;;;6.30;;
56752;SDS011;42627;42.646;23.642;2023-08-20T07:20:23;15.43;;;6.63;;
56752;SDS011;42627;42.646;23.642;2023-08-20T07:22:24;9.80;;;5.63;;
56752;SDS011;42627;42.646;23.642;2023-08-20T07:24:34;12.43;;;6.53;;
56752;SDS011;42627;42.646;23.642;2023-08-20T07:26:45;9.50;;;5.72;;
56752;SDS011;42627;42.646;23.642;2023-08-20T07:28:58;9.70;;;5.50;;
56752;SDS011;42627;42.646;23.642;2023-08-20T07:30:59;8.30;;;5.10;;
56752;SDS011;42627;42.646;23.642;2023-08-20T07:33:00;9.13;;;4.78;;
56752;SDS011;42627;42.646;23.642;2023-08-20T07:35:02;7.85;;;4.63;;
56752;SDS011;42627;42.646;23.642;2023-08-20T07:37:03;8.82;;;4.88;;
56752;SDS011;42627;42.646;23.642;2023-08-20T07:39:05;7.45;;;3.92;;
56752;SDS011;42627;42.646;23.642;2023-08-20T07:41:06;7.80;;;4.50;;
56752;SDS011;42627;42.646;23.642;2023-08-20T07:45:27;10.25;;;5.30;;
56752;SDS011;42627;42.646;23.642;2023-08-20T07:47:28;5.93;;;4.47;;
56752;SDS011;42627;42.646;23.642;2023-08-20T07:49:29;6.65;;;4.60;;
56752;SDS011;42627;42.646;23.642;2023-08-20T07:51:30;7.18;;;4.20;;
56752;SDS011;42627;42.646;23.642;2023-08-20T07:53:44;6.95;;;4.28;;
56752;SDS011;42627;42.646;23.642;2023-08-20T08:00:34;5.93;;;3.05;;
56752;SDS011;42627;42.646;23.642;2023-08-20T08:02:35;4.53;;;3.17;;
56752;SDS011;42627;42.646;23.642;2023-08-20T08:04:36;8.40;;;3.53;;
56752;SDS011;42627;42.646;23.642;2023-08-20T08:06:37;6.22;;;3.33;;
56752;SDS011;42627;42.646;23.642;2023-08-20T08:08:41;7.43;;;3.50;;
56752;SDS011;42627;42.646;23.642;2023-08-20T08:10:44;6.13;;;3.53;;
56752;SDS011;42627;42.646;23.642;2023-08-20T08:15:06;5.95;;;2.70;;
56752;SDS011;42627;42.646;23.642;2023-08-20T08:17:07;4.82;;;2.35;;
56752;SDS011;42627;42.646;23.642;2023-08-20T08:19:08;3.90;;;2.40;;
56752;SDS011;42627;42.646;23.642;2023-08-20T08:21:09;5.28;;;2.50;;
56752;SDS011;42627;42.646;23.642;2023-08-20T08:30:24;5.35;;;2.78;;
56752;SDS011;42627;42.646;23.642;2023-08-20T08:32:25;3.75;;;2.40;;
56752;SDS011;42627;42.646;23.642;2023-08-20T08:34:26;4.75;;;2.83;;
56752;SDS011;42627;42.646;23.642;2023-08-20T08:36:27;4.82;;;2.92;;
56752;SDS011;42627;42.646;23.642;2023-08-20T08:38:29;5.22;;;2.70;;
56752;SDS011;42627;42.646;23.642;2023-08-20T08:40:30;4.97;;;2.50;;
56752;SDS011;42627;42.646;23.642;2023-08-20T08:44:42;4.60;;;2.72;;
56752;SDS011;42627;42.646;23.642;2023-08-20T08:46:44;4.38;;;2.70;;
56752;SDS011;42627;42.646;23.642;2023-08-20T08:48:46;3.90;;;2.80;;
56752;SDS011;42627;42.646;23.642;2023-08-20T08:50:47;4.57;;;2.72;;
56752;SDS011;42627;42.646;23.642;2023-08-20T08:52:52;5.82;;;4.05;;
56752;SDS011;42627;42.646;23.642;2023-08-20T08:54:55;4.88;;;2.78;;
56752;SDS011;42627;42.646;23.642;2023-08-20T08:56:56;8.38;;;2.92;;
56752;SDS011;42627;42.646;23.642;2023-08-20T09:05:58;5.70;;;3.05;;
56752;SDS011;42627;42.646;23.642;2023-08-20T09:08:00;5.38;;;2.70;;
56752;SDS011;42627;42.646;23.642;2023-08-20T09:10:01;4.65;;;2.45;;
56752;SDS011;42627;42.646;23.642;2023-08-20T09:12:05;4.50;;;2.78;;
56752;SDS011;42627;42.646;23.642;2023-08-20T09:16:37;4.53;;;2.50;;
56752;SDS011;42627;42.646;23.642;2023-08-20T09:18:39;5.05;;;2.75;;
56752;SDS011;42627;42.646;23.642;2023-08-20T09:20:40;7.07;;;2.65;;
56752;SDS011;42627;42.646;23.642;2023-08-20T09:22:45;5.50;;;2.60;;
56752;SDS011;42627;42.646;23.642;2023-08-20T09:24:53;4.40;;;2.33;;
56752;SDS011;42627;42.646;23.642;2023-08-20T09:26:57;4.97;;;2.75;;
56752;SDS011;42627;42.646;23.642;2023-08-20T09:29:01;4.30;;;2.33;;
56752;SDS011;42627;42.646;23.642;2023-08-20T09:31:03;4.07;;;2.30;;
56752;SDS011;42627;42.646;23.642;2023-08-20T09:33:10;5.03;;;2.50;;
56752;SDS011;42627;42.646;23.642;2023-08-20T09:35:17;5.00;;;2.60;;
56752;SDS011;42627;42.646;23.642;2023-08-20T09:37:19;5.97;;;2.65;;
56752;SDS011;42627;42.646;23.642;2023-08-20T09:39:20;6.50;;;2.97;;
56752;SDS011;42627;42.646;23.642;2023-08-20T09:41:22;3.88;;;2.28;;
56752;SDS011;42627;42.646;23.642;2023-08-20T09:51:13;4.97;;;2.30;;
56752;SDS011;42627;42.646;23.642;2023-08-20T09:53:25;8.15;;;2.38;;
56752;SDS011;42627;42.646;23.642;2023-08-20T09:55:28;5.38;;;2.95;;
56752;SDS011;42627;42.646;23.642;2023-08-20T10:02:02;4.90;;;2.10;;
56752;SDS011;42627;42.646;23.642;2023-08-20T10:04:03;6.60;;;3.08;;
56752;SDS011;42627;42.646;23.642;2023-08-20T10:06:05;4.38;;;2.30;;
56752;SDS011;42627;42.646;23.642;2023-08-20T10:08:07;6.28;;;2.58;;
56752;SDS011;42627;42.646;23.642;2023-08-20T10:10:11;4.13;;;2.20;;
56752;SDS011;42627;42.646;23.642;2023-08-20T10:16:34;7.47;;;2.45;;
56752;SDS011;42627;42.646;23.642;2023-08-20T10:18:36;7.18;;;3.08;;
56752;SDS011;42627;42.646;23.642;2023-08-20T10:20:41;4.35;;;2.30;;
56752;SDS011;42627;42.646;23.642;2023-08-20T10:29:45;7.32;;;3.13;;
56752;SDS011;42627;42.646;23.642;2023-08-20T10:31:46;4.45;;;2.38;;
56752;SDS011;42627;42.646;23.642;2023-08-20T10:33:49;5.82;;;3.15;;
56752;SDS011;42627;42.646;23.642;2023-08-20T10:35:50;4.30;;;2.17;;
56752;SDS011;42627;42.646;23.642;2023-08-20T10:38:01;4.35;;;2.47;;
56752;SDS011;42627;42.646;23.642;2023-08-20T10:40:03;4.30;;;2.55;;
56752;SDS011;42627;42.646;23.642;2023-08-20T10:46:49;3.92;;;2.13;;
56752;SDS011;42627;42.646;23.642;2023-08-20T10:50:53;3.85;;;2.10;;
56752;SDS011;42627;42.646;23.642;2023-08-20T10:52:54;4.65;;;2.53;;
56752;SDS011;42627;42.646;23.642;2023-08-20T10:54:56;3.70;;;2.38;;
56752;SDS011;42627;42.646;23.642;2023-08-20T10:56:57;4.63;;;2.38;;
56752;SDS011;42627;42.646;23.642;2023-08-20T11:01:21;5.93;;;2.20;;
56752;SDS011;42627;42.646;23.642;2023-08-20T11:03:22;3.70;;;2.33;;
56752;SDS011;42627;42.646;23.642;2023-08-20T11:05:23;4.00;;;2.40;;
56752;SDS011;42627;42.646;23.642;2023-08-20T11:07:25;3.72;;;2.20;;
56752;SDS011;42627;42.646;23.642;2023-08-20T11:09:28;5.32;;;2.03;;
56752;SDS011;42627;42.646;23.642;2023-08-20T11:11:29;4.55;;;2.53;;
56752;SDS011;42627;42.646;23.642;2023-08-20T11:20:55;4.30;;;2.35;;
56752;SDS011;42627;42.646;23.642;2023-08-20T11:22:56;3.85;;;2.28;;
56752;SDS011;42627;42.646;23.642;2023-08-20T11:24:57;6.97;;;2.10;;
56752;SDS011;42627;42.646;23.642;2023-08-20T11:26:58;3.58;;;2.05;;
56752;SDS011;42627;42.646;23.642;2023-08-20T11:28:59;4.50;;;2.50;;
56752;SDS011;42627;42.646;23.642;2023-08-20T11:31:01;3.95;;;2.30;;
56752;SDS011;42627;42.646;23.642;2023-08-20T11:35:26;5.05;;;2.33;;
56752;SDS011;42627;42.646;23.642;2023-08-20T11:37:27;3.80;;;2.65;;
56752;SDS011;42627;42.646;23.642;2023-08-20T11:39:28;4.07;;;2.45;;
56752;SDS011;42627;42.646;23.642;2023-08-20T11:41:29;3.75;;;2.13;;
56752;SDS011;42627;42.646;23.642;2023-08-20T11:43:31;4.20;;;2.17;;
56752;SDS011;42627;42.646;23.642;2023-08-20T11:45:33;4.03;;;2.35;;
56752;SDS011;42627;42.646;23.642;2023-08-20T11:50:04;5.95;;;2.42;;
56752;SDS011;42627;42.646;23.642;2023-08-20T11:52:05;4.72;;;2.83;;
56752;SDS011;42627;42.646;23.642;2023-08-20T11:54:11;5.20;;;2.42;;
56752;SDS011;42627;42.646;23.642;2023-08-20T11:56:15;4.07;;;2.15;;
56752;SDS011;42627;42.646;23.642;2023-08-20T11:58:19;4.30;;;2.25;;
56752;SDS011;42627;42.646;23.642;2023-08-20T12:00:29;4.75;;;2.90;;
56752;SDS011;42627;42.646;23.642;2023-08-20T12:10:21;3.22;;;1.80;;
56752;SDS011;42627;42.646;23.642;2023-08-20T12:12:22;5.22;;;2.22;;
56752;SDS011;42627;42.646;23.642;2023-08-20T12:14:23;11.18;;;2.90;;
56752;SDS011;42627;42.646;23.642;2023-08-20T12:16:24;5.25;;;2.78;;
56752;SDS011;42627;42.646;23.642;2023-08-20T12:33:41;3.97;;;2.03;;
56752;SDS011;42627;42.646;23.642;2023-08-20T12:38:03;3.40;;;2.25;;
56752;SDS011;42627;42.646;23.642;2023-08-20T12:40:05;3.95;;;2.00;;
56752;SDS011;42627;42.646;23.642;2023-08-20T12:42:10;4.03;;;2.40;;
56752;SDS011;42627;42.646;23.642;2023-08-20T12:44:11;5.50;;;2.50;;
56752;SDS011;42627;42.646;23.642;2023-08-20T12:46:12;3.53;;;1.95;;
56752;SDS011;42627;42.646;23.642;2023-08-20T12:56:13;4.10;;;1.95;;
56752;SDS011;42627;42.646;23.642;2023-08-20T12:58:15;3.47;;;2.03;;
56752;SDS011;42627;42.646;23.642;2023-08-20T13:00:16;4.20;;;2.28;;
56752;SDS011;42627;42.646;23.642;2023-08-20T13:04:42;3.78;;;2.15;;
56752;SDS011;42627;42.646;23.642;2023-08-20T13:06:44;4.13;;;2.25;;
56752;SDS011;42627;42.646;23.642;2023-08-20T13:08:45;2.70;;;1.60;;
56752;SDS011;42627;42.646;23.642;2023-08-20T13:12:55;4.95;;;1.95;;
56752;SDS011;42627;42.646;23.642;2023-08-20T13:14:59;3.90;;;1.67;;
56752;SDS011;42627;42.646;23.642;2023-08-20T13:17:00;2.97;;;1.88;;
56752;SDS011;42627;42.646;23.642;2023-08-20T13:21:12;3.65;;;1.90;;
56752;SDS011;42627;42.646;23.642;2023-08-20T13:23:13;3.38;;;1.63;;
56752;SDS011;42627;42.646;23.642;2023-08-20T13:25:14;6.07;;;2.00;;
56752;SDS011;42627;42.646;23.642;2023-08-20T13:27:15;3.45;;;1.80;;
56752;SDS011;42627;42.646;23.642;2023-08-20T13:29:16;3.28;;;1.70;;
56752;SDS011;42627;42.646;23.642;2023-08-20T13:31:17;3.72;;;2.10;;
56752;SDS011;42627;42.646;23.642;2023-08-20T13:40:40;5.68;;;2.08;;
56752;SDS011;42627;42.646;23.642;2023-08-20T13:42:41;3.08;;;1.95;;
56752;SDS011;42627;42.646;23.642;2023-08-20T13:44:42;2.80;;;1.60;;
56752;SDS011;42627;42.646;23.642;2023-08-20T13:46:43;3.97;;;1.98;;
56752;SDS011;42627;42.646;23.642;2023-08-20T13:48:44;4.22;;;2.05;;
56752;SDS011;42627;42.646;23.642;2023-08-20T13:50:45;3.90;;;1.88;;
56752;SDS011;42627;42.646;23.642;2023-08-20T13:55:06;2.72;;;1.75;;
56752;SDS011;42627;42.646;23.642;2023-08-20T13:57:07;4.75;;;2.00;;
56752;SDS011;42627;42.646;23.642;2023-08-20T13:59:09;3.10;;;1.67;;
56752;SDS011;42627;42.646;23.642;2023-08-20T14:01:10;3.17;;;2.10;;
56752;SDS011;42627;42.646;23.642;2023-08-20T14:08:35;3.90;;;1.85;;
56752;SDS011;42627;42.646;23.642;2023-08-20T14:10:41;3.47;;;1.40;;
56752;SDS011;42627;42.646;23.642;2023-08-20T14:12:42;5.85;;;2.00;;
56752;SDS011;42627;42.646;23.642;2023-08-20T14:14:43;3.15;;;1.75;;
56752;SDS011;42627;42.646;23.642;2023-08-20T14:16:44;3.70;;;1.75;;
56752;SDS011;42627;42.646;23.642;2023-08-20T14:18:45;4.43;;;2.05;;
56752;SDS011;42627;42.646;23.642;2023-08-20T14:20:47;5.10;;;1.98;;
56752;SDS011;42627;42.646;23.642;2023-08-20T14:25:14;3.45;;;2.05;;
56752;SDS011;42627;42.646;23.642;2023-08-20T14:27:16;3.53;;;1.83;;
56752;SDS011;42627;42.646;23.642;2023-08-20T14:29:17;3.47;;;2.10;;
56752;SDS011;42627;42.646;23.642;2023-08-20T14:31:18;3.67;;;2.00;;
56752;SDS011;42627;42.646;23.642;2023-08-20T14:38:30;3.83;;;1.90;;
56752;SDS011;42627;42.646;23.642;2023-08-20T14:40:32;3.60;;;2.00;;
56752;SDS011;42627;42.646;23.642;2023-08-20T14:42:34;3.45;;;1.70;;
56752;SDS011;42627;42.646;23.642;2023-08-20T14:44:35;4.13;;;2.20;;
56752;SDS011;42627;42.646;23.642;2023-08-20T14:46:36;4.15;;;2.05;;
56752;SDS011;42627;42.646;23.642;2023-08-20T14:48:38;3.58;;;1.88;;
56752;SDS011;42627;42.646;23.642;2023-08-20T14:50:47;4.55;;;1.92;;
56752;SDS011;42627;42.646;23.642;2023-08-20T14:55:11;8.38;;;2.55;;
56752;SDS011;42627;42.646;23.642;2023-08-20T14:57:12;3.63;;;2.15;;
56752;SDS011;42627;42.646;23.642;2023-08-20T14:59:17;3.15;;;1.80;;
56752;SDS011;42627;42.646;23.642;2023-08-20T15:08:46;3.20;;;1.85;;
56752;SDS011;42627;42.646;23.642;2023-08-20T15:15:30;4.72;;;2.00;;
56752;SDS011;42627;42.646;23.642;2023-08-20T15:17:35;3.15;;;1.80;;
56752;SDS011;42627;42.646;23.642;2023-08-20T15:19:41;3.63;;;1.92;;
56752;SDS011;42627;42.646;23.642;2023-08-20T15:23:55;3.40;;;1.83;;
56752;SDS011;42627;42.646;23.642;2023-08-20T15:25:57;3.53;;;1.90;;
56752;SDS011;42627;42.646;23.642;2023-08-20T15:27:58;3.45;;;1.88;;
56752;SDS011;42627;42.646;23.642;2023-08-20T15:30:00;3.30;;;2.00;;
56752;SDS011;42627;42.646;23.642;2023-08-20T15:32:01;3.67;;;2.08;;
56752;SDS011;42627;42.646;23.642;2023-08-20T15:34:04;4.30;;;2.43;;
56752;SDS011;42627;42.646;23.642;2023-08-20T15:36:13;5.03;;;2.40;;
56752;SDS011;42627;42.646;23.642;2023-08-20T15:43:35;4.82;;;2.00;;
56752;SDS011;42627;42.646;23.642;2023-08-20T15:45:36;3.65;;;1.90;;
56752;SDS011;42627;42.646;23.642;2023-08-20T15:47:37;3.60;;;2.10;;
56752;SDS011;42627;42.646;23.642;2023-08-20T15:49:38;4.22;;;2.42;;
56752;SDS011;42627;42.646;23.642;2023-08-20T15:51:39;6.18;;;2.20;;
56752;SDS011;42627;42.646;23.642;2023-08-20T15:53:41;5.07;;;2.50;;
56752;SDS011;42627;42.646;23.642;2023-08-20T15:58:06;4.57;;;2.40;;
56752;SDS011;42627;42.646;23.642;2023-08-20T16:00:08;5.50;;;2.22;;
56752;SDS011;42627;42.646;23.642;2023-08-20T16:02:14;3.10;;;1.83;;
56752;SDS011;42627;42.646;23.642;2023-08-20T16:04:16;5.80;;;2.33;;
56752;SDS011;42627;42.646;23.642;2023-08-20T16:06:26;4.63;;;2.45;;
56752;SDS011;42627;42.646;23.642;2023-08-20T16:13:34;4.40;;;2.03;;
56752;SDS011;42627;42.646;23.642;2023-08-20T16:15:35;3.10;;;1.70;;
56752;SDS011;42627;42.646;23.642;2023-08-20T16:17:39;3.70;;;1.90;;
56752;SDS011;42627;42.646;23.642;2023-08-20T16:19:40;4.15;;;1.98;;
56752;SDS011;42627;42.646;23.642;2023-08-20T16:21:43;3.15;;;1.90;;
56752;SDS011;42627;42.646;23.642;2023-08-20T16:23:44;3.13;;;1.83;;
56752;SDS011;42627;42.646;23.642;2023-08-20T16:25:57;3.70;;;2.00;;
56752;SDS011;42627;42.646;23.642;2023-08-20T16:27:58;3.88;;;2.33;;